Time;durP1;ratioP1;P1;durP2;ratioP2;P2;SDS_P1;SDS_P2;PMS_P1;PMS_P2;Temp;Humidity;BMP_temperature;BMP_pressure;BME280_temperature;BME280_humidity;BME280_pressure;Samples;Min_cycle;Max_cycle;Signal;HPM_P1;HPM_P2
2023/12/08 00:00:07;;;;;;;;;;;7.60;94.50;;;;;;6307880;22;19906;-80
2023/12/08 00:02:33;;;;;;;;;;;7.60;94.50;;;;;;6280795;22;19899;-80
2023/12/08 00:04:59;;;;;;;;;;;7.60;94.50;;;;;;6307557;22;19903;-81
2023/12/08 00:07:24;;;;;;;;;;;7.60;94.50;;;;;;6280583;22;20339;-81
2023/12/08 00:09:50;;;;;;;;;;;7.60;94.50;;;;;;6307660;22;19990;-80
2023/12/08 00:12:16;;;;;;;;;;;7.60;94.50;;;;;;6307818;22;20316;-81
2023/12/08 00:14:41;;;;;;;;;;;7.60;94.40;;;;;;6307665;22;20244;-81
2023/12/08 00:17:07;;;;;;;;;;;7.60;94.30;;;;;;6307482;22;19899;-81
2023/12/08 00:19:32;;;;;;;;;;;7.60;94.20;;;;;;6307489;22;19981;-81
2023/12/08 00:21:58;;;;;;;;;;;7.60;94.00;;;;;;6280406;22;19953;-80
2023/12/08 00:24:24;;;;;;;;;;;7.60;94.00;;;;;;6308219;22;19898;-80
2023/12/08 00:26:50;;;;;;;;;;;7.60;93.90;;;;;;6307628;22;20232;-81
2023/12/08 00:29:18;;;;;;;;;;;7.60;93.90;;;;;;6307456;22;19910;-80
2023/12/08 00:31:44;;;;;;;;;;;7.60;93.50;;;;;;6307044;22;19898;-80
2023/12/08 00:34:10;;;;;;;;;;;7.50;93.50;;;;;;6307153;22;19989;-80
2023/12/08 00:36:36;;;;;;;;;;;7.50;93.30;;;;;;6307986;22;19905;-81
2023/12/08 00:39:01;;;;;;;;;;;7.50;93.10;;;;;;6309140;22;20304;-81
2023/12/08 00:41:27;;;;;;;;;;;7.50;93.00;;;;;;6281921;22;20301;-81
2023/12/08 00:43:53;;;;;;;;;;;7.50;92.90;;;;;;6282155;22;19970;-82
2023/12/08 00:46:18;;;;;;;;;;;7.50;92.80;;;;;;6309375;22;19945;-81
2023/12/08 00:48:44;;;;;;;;;;;7.50;92.70;;;;;;6309462;22;19907;-80
2023/12/08 00:51:13;;;;;;;;;;;7.50;92.60;;;;;;6309486;22;19922;-80
2023/12/08 00:53:39;;;;;;;;;;;7.50;92.50;;;;;;6309333;22;19899;-81
2023/12/08 00:56:05;;;;;;;;;;;7.40;92.60;;;;;;6281984;22;19906;-81
2023/12/08 00:58:31;;;;;;;;;;;7.40;92.50;;;;;;6309506;22;19906;-81
2023/12/08 01:00:57;;;;;;;;;;;7.40;92.50;;;;;;6309333;22;19899;-81
2023/12/08 01:03:23;;;;;;;;;;;7.40;92.40;;;;;;6308738;22;19903;-81
2023/12/08 01:05:48;;;;;;;;;;;7.40;92.50;;;;;;6308983;22;20358;-81
2023/12/08 01:08:14;;;;;;;;;;;7.40;92.40;;;;;;6309564;22;19925;-81
2023/12/08 01:10:39;;;;;;;;;;;7.40;92.40;;;;;;6309261;22;19899;-81
2023/12/08 01:13:05;;;;;;;;;;;7.30;92.40;;;;;;6309227;22;19898;-81
2023/12/08 01:15:30;;;;;;;;;;;7.30;92.40;;;;;;6308820;22;19903;-81
2023/12/08 01:17:56;;;;;;;;;;;7.30;92.30;;;;;;6309037;22;19985;-81
2023/12/08 01:20:21;;;;;;;;;;;7.30;92.30;;;;;;6309174;22;19899;-80
2023/12/08 01:22:47;;;;;;;;;;;7.20;92.10;;;;;;6309488;22;19933;-81
2023/12/08 01:25:13;;;;;;;;;;;7.20;92.10;;;;;;6281956;22;19905;-80
2023/12/08 01:27:38;;;;;;;;;;;7.20;92.10;;;;;;6305025;22;20214;-80
2023/12/08 01:30:05;;;;;;;;;;;7.20;92.20;;;;;;6305691;22;19952;-81
2023/12/08 01:32:30;;;;;;;;;;;7.20;92.20;;;;;;6309230;22;19910;-81
2023/12/08 01:34:56;;;;;;;;;;;7.20;92.20;;;;;;6309017;22;19903;-80
2023/12/08 01:37:22;;;;;;;;;;;7.20;92.10;;;;;;6309132;22;19899;-81
2023/12/08 01:39:48;;;;;;;;;;;7.20;92.10;;;;;;6307689;22;19906;-80
2023/12/08 01:42:13;;;;;;;;;;;7.20;92.10;;;;;;6281410;22;20501;-81
2023/12/08 01:44:39;;;;;;;;;;;7.20;92.00;;;;;;6281354;22;19899;-81
2023/12/08 01:47:06;;;;;;;;;;;7.20;92.00;;;;;;6308688;22;19899;-81
2023/12/08 01:49:32;;;;;;;;;;;7.10;91.90;;;;;;6281429;22;19907;-80
2023/12/08 01:51:58;;;;;;;;;;;7.10;91.90;;;;;;6281499;22;19899;-81
2023/12/08 01:54:23;;;;;;;;;;;7.00;92.00;;;;;;6281875;22;19899;-80
2023/12/08 01:56:49;;;;;;;;;;;7.00;92.10;;;;;;6309115;22;19899;-81
2023/12/08 01:59:14;;;;;;;;;;;7.00;92.10;;;;;;6308557;22;19906;-81
2023/12/08 02:01:40;;;;;;;;;;;7.00;92.10;;;;;;6308589;22;19910;-80
2023/12/08 02:04:06;;;;;;;;;;;7.00;92.10;;;;;;6308492;22;19895;-80
2023/12/08 02:06:32;;;;;;;;;;;7.00;92.20;;;;;;6308618;22;20339;-81
2023/12/08 02:08:58;;;;;;;;;;;7.00;92.00;;;;;;6308245;22;19903;-81
2023/12/08 02:11:24;;;;;;;;;;;7.00;92.40;;;;;;6308434;22;19899;-81
2023/12/08 02:13:49;;;;;;;;;;;7.00;92.40;;;;;;6280755;22;19899;-81
2023/12/08 02:16:19;;;;;;;;;;;7.00;92.30;;;;;;6308614;22;19978;-81
2023/12/08 02:18:45;;;;;;;;;;;7.00;92.20;;;;;;6281813;22;19899;-80
2023/12/08 02:21:13;;;;;;;;;;;7.00;92.20;;;;;;6309053;22;19898;-80
2023/12/08 02:23:43;;;;;;;;;;;7.00;92.20;;;;;;6308511;22;19948;-81
2023/12/08 02:26:10;;;;;;;;;;;7.00;92.20;;;;;;6308721;22;19899;-81
2023/12/08 02:28:36;;;;;;;;;;;7.00;92.20;;;;;;6309017;22;19959;-81
2023/12/08 02:31:02;;;;;;;;;;;7.00;92.20;;;;;;6314293;22;19927;-82
2023/12/08 02:33:30;;;;;;;;;;;7.00;92.20;;;;;;6308318;22;20312;-81
2023/12/08 02:35:56;;;;;;;;;;;6.90;92.10;;;;;;6280881;22;19898;-81
2023/12/08 02:38:23;;;;;;;;;;;6.90;92.20;;;;;;6308195;22;19926;-81
2023/12/08 02:40:49;;;;;;;;;;;6.90;92.20;;;;;;6307901;22;19911;-81
2023/12/08 02:43:14;;;;;;;;;;;6.80;92.10;;;;;;6307889;22;19899;-81
2023/12/08 02:45:40;;;;;;;;;;;6.80;92.00;;;;;;6280956;22;19981;-81
2023/12/08 02:48:06;;;;;;;;;;;6.70;92.20;;;;;;6308651;22;19903;-81
2023/12/08 02:50:31;;;;;;;;;;;6.50;92.10;;;;;;6308059;22;19907;-81
2023/12/08 02:52:57;;;;;;;;;;;6.40;92.30;;;;;;6281141;22;19913;-81
2023/12/08 02:55:22;;;;;;;;;;;6.40;92.40;;;;;;6280934;22;19960;-80
2023/12/08 02:57:48;;;;;;;;;;;6.40;92.50;;;;;;6308001;22;19942;-81
2023/12/08 03:00:13;;;;;;;;;;;6.30;92.60;;;;;;6307809;22;19899;-80
2023/12/08 03:02:39;;;;;;;;;;;6.30;92.60;;;;;;6280835;22;19972;-81
2023/12/08 03:05:05;;;;;;;;;;;6.20;92.70;;;;;;6280648;22;19906;-81
2023/12/08 03:07:30;;;;;;;;;;;6.20;92.80;;;;;;6308430;22;19902;-81
2023/12/08 03:09:56;;;;;;;;;;;6.20;92.80;;;;;;6307892;22;19906;-80
2023/12/08 03:12:21;;;;;;;;;;;6.20;92.90;;;;;;6308375;22;20209;-81
2023/12/08 03:14:47;;;;;;;;;;;6.20;92.90;;;;;;6308130;22;19935;-81
2023/12/08 03:17:13;;;;;;;;;;;6.10;92.80;;;;;;6308097;22;19906;-81
2023/12/08 03:19:40;;;;;;;;;;;6.10;92.80;;;;;;6281515;22;19906;-84
2023/12/08 03:22:05;;;;;;;;;;;6.00;92.80;;;;;;6308468;22;19930;-84
2023/12/08 03:24:31;;;;;;;;;;;6.00;92.70;;;;;;6308548;22;19953;-86
2023/12/08 03:26:56;;;;;;;;;;;5.90;92.70;;;;;;6308829;22;19902;-83
2023/12/08 03:29:22;;;;;;;;;;;5.90;92.80;;;;;;6308245;22;19989;-83
2023/12/08 03:31:47;;;;;;;;;;;5.90;92.90;;;;;;6308931;22;19899;-84
2023/12/08 03:34:13;;;;;;;;;;;5.80;92.90;;;;;;6308919;22;19898;-85
2023/12/08 03:36:38;;;;;;;;;;;5.80;93.00;;;;;;6308916;22;19906;-85
2023/12/08 03:39:04;;;;;;;;;;;5.80;93.00;;;;;;6308255;22;20217;-85
2023/12/08 03:41:30;;;;;;;;;;;5.90;93.00;;;;;;6308932;22;20198;-84
2023/12/08 03:43:55;;;;;;;;;;;5.90;93.00;;;;;;6308232;22;19906;-84
2023/12/08 03:46:21;;;;;;;;;;;6.00;92.80;;;;;;6281033;22;19953;-84
2023/12/08 03:48:46;;;;;;;;;;;6.10;92.70;;;;;;6308265;22;19907;-85
2023/12/08 03:51:12;;;;;;;;;;;6.10;92.60;;;;;;6308546;22;19950;-85
2023/12/08 03:53:38;;;;;;;;;;;6.10;92.70;;;;;;6308294;22;20319;-86
2023/12/08 03:56:03;;;;;;;;;;;6.20;92.60;;;;;;6308445;22;19910;-86
2023/12/08 03:58:29;;;;;;;;;;;6.20;92.50;;;;;;6308633;22;19899;-86
2023/12/08 04:00:55;;;;;;;;;;;6.20;92.30;;;;;;6308470;22;19898;-84
2023/12/08 04:03:20;;;;;;;;;;;6.20;92.10;;;;;;6308379;22;20400;-83
2023/12/08 04:05:46;;;;;;;;;;;6.10;92.20;;;;;;6308204;22;19902;-84
2023/12/08 04:08:11;;;;;;;;;;;6.10;92.20;;;;;;6308755;22;20023;-84
2023/12/08 04:10:37;;;;;;;;;;;6.10;92.20;;;;;;6308038;22;20277;-84
2023/12/08 04:13:03;;;;;;;;;;;6.10;92.30;;;;;;6310206;22;19978;-86
2023/12/08 04:15:28;;;;;;;;;;;6.10;92.30;;;;;;6310224;22;19905;-85
2023/12/08 04:17:54;;;;;;;;;;;6.20;92.30;;;;;;6309965;22;20309;-84
2023/12/08 04:20:19;;;;;;;;;;;6.20;92.10;;;;;;6310161;22;19903;-85
2023/12/08 04:22:45;;;;;;;;;;;6.20;92.10;;;;;;6310324;22;19906;-85
2023/12/08 04:25:13;;;;;;;;;;;6.20;92.00;;;;;;6310083;22;19949;-84
2023/12/08 04:27:39;;;;;;;;;;;6.20;92.00;;;;;;6309717;22;19929;-84
2023/12/08 04:30:05;;;;;;;;;;;6.30;91.90;;;;;;6309910;22;19903;-85
2023/12/08 04:32:31;;;;;;;;;;;6.20;92.00;;;;;;6309729;22;19903;-84
2023/12/08 04:34:56;;;;;;;;;;;6.20;91.80;;;;;;6282633;22;20344;-84
2023/12/08 04:37:22;;;;;;;;;;;6.30;91.80;;;;;;6309923;22;19899;-83
2023/12/08 04:39:47;;;;;;;;;;;6.30;91.80;;;;;;6309827;22;19907;-83
2023/12/08 04:42:14;;;;;;;;;;;6.30;91.70;;;;;;6310153;22;19988;-86
2023/12/08 04:44:39;;;;;;;;;;;6.30;91.70;;;;;;6309667;22;19903;-86
2023/12/08 04:47:05;;;;;;;;;;;6.30;91.70;;;;;;6310285;22;19906;-86
2023/12/08 04:49:30;;;;;;;;;;;6.30;91.60;;;;;;6309758;22;20332;-85
2023/12/08 04:51:56;;;;;;;;;;;6.30;91.60;;;;;;6282456;22;20275;-84
2023/12/08 04:54:21;;;;;;;;;;;6.30;91.60;;;;;;6309743;22;19991;-85
2023/12/08 04:56:47;;;;;;;;;;;6.30;91.60;;;;;;6309610;22;19956;-87
2023/12/08 04:59:12;;;;;;;;;;;6.30;91.50;;;;;;6309673;22;19921;-86
2023/12/08 05:01:38;;;;;;;;;;;6.30;91.50;;;;;;6309416;22;20233;-87
2023/12/08 05:04:04;;;;;;;;;;;6.30;91.50;;;;;;6309263;22;19956;-87
2023/12/08 05:06:29;;;;;;;;;;;6.30;91.50;;;;;;6309443;22;19981;-87
2023/12/08 05:08:55;;;;;;;;;;;6.20;91.50;;;;;;6309517;22;20557;-87
2023/12/08 05:11:21;;;;;;;;;;;6.30;91.60;;;;;;6282354;22;19910;-87
2023/12/08 05:13:47;;;;;;;;;;;6.30;91.60;;;;;;6309633;22;19899;-87
2023/12/08 05:16:12;;;;;;;;;;;6.30;91.50;;;;;;6281830;22;19922;-87
2023/12/08 05:18:39;;;;;;;;;;;6.40;91.70;;;;;;6309059;22;19973;-88
2023/12/08 05:21:04;;;;;;;;;;;6.40;91.50;;;;;;6309640;22;19952;-86
2023/12/08 05:23:30;;;;;;;;;;;6.40;91.40;;;;;;6309275;22;19977;-86
2023/12/08 05:25:55;;;;;;;;;;;6.40;91.40;;;;;;6309554;22;19899;-86
2023/12/08 05:28:21;;;;;;;;;;;6.40;91.30;;;;;;6309156;22;19903;-86
2023/12/08 05:30:46;;;;;;;;;;;6.40;91.40;;;;;;6308590;22;19909;-87
2023/12/08 05:33:12;;;;;;;;;;;6.40;91.50;;;;;;6309023;22;20378;-87
2023/12/08 05:35:38;;;;;;;;;;;6.50;91.40;;;;;;6281915;22;19930;-87
2023/12/08 05:38:03;;;;;;;;;;;6.40;91.20;;;;;;6281974;22;19910;-88
2023/12/08 05:40:29;;;;;;;;;;;6.40;91.30;;;;;;6308982;22;19917;-88
2023/12/08 05:42:54;;;;;;;;;;;6.50;91.20;;;;;;6309155;22;19921;-87
2023/12/08 05:45:20;;;;;;;;;;;6.50;91.20;;;;;;6309754;22;19902;-87
2023/12/08 05:47:45;;;;;;;;;;;6.50;91.10;;;;;;6309542;22;19899;-87
2023/12/08 05:50:11;;;;;;;;;;;6.50;91.20;;;;;;6309127;22;19911;-87
2023/12/08 05:52:36;;;;;;;;;;;6.50;91.10;;;;;;6308759;22;20233;-87
2023/12/08 05:55:02;;;;;;;;;;;6.50;91.10;;;;;;6281642;22;19922;-87
2023/12/08 05:57:28;;;;;;;;;;;6.50;91.10;;;;;;6308596;22;19903;-87
2023/12/08 05:59:54;;;;;;;;;;;6.50;91.10;;;;;;6309034;22;20229;-89
2023/12/08 06:02:19;;;;;;;;;;;6.50;91.10;;;;;;6309431;22;19969;-89
2023/12/08 06:04:45;;;;;;;;;;;6.50;91.40;;;;;;6281801;22;20286;-89
2023/12/08 06:07:10;;;;;;;;;;;6.50;91.10;;;;;;6309003;22;19903;-89
2023/12/08 06:09:36;;;;;;;;;;;6.60;91.10;;;;;;6309385;22;19941;-89
2023/12/08 06:12:02;;;;;;;;;;;6.60;91.20;;;;;;6309708;22;20310;-90
2023/12/08 06:14:27;;;;;;;;;;;6.60;91.20;;;;;;6309753;22;19907;-90
2023/12/08 06:16:53;;;;;;;;;;;6.60;91.10;;;;;;6282115;22;19994;-89
2023/12/08 06:19:19;;;;;;;;;;;6.60;91.20;;;;;;6309125;22;19926;-89
2023/12/08 06:21:44;;;;;;;;;;;6.50;91.10;;;;;;6309062;22;19899;-89
2023/12/08 06:24:10;;;;;;;;;;;6.60;91.00;;;;;;6309370;22;19899;-89
2023/12/08 06:26:38;;;;;;;;;;;6.50;91.10;;;;;;6281750;22;19899;-89
2023/12/08 06:29:04;;;;;;;;;;;6.50;91.10;;;;;;6309406;22;19907;-88
2023/12/08 06:31:30;;;;;;;;;;;6.50;90.90;;;;;;6309573;22;20355;-90
2023/12/08 06:33:56;;;;;;;;;;;6.50;91.10;;;;;;6308445;22;19905;-88
2023/12/08 06:36:21;;;;;;;;;;;6.50;91.10;;;;;;6281764;22;19974;-86
2023/12/08 06:38:47;;;;;;;;;;;6.50;91.10;;;;;;6308366;22;19903;-85
2023/12/08 06:41:12;;;;;;;;;;;6.50;91.10;;;;;;6308360;22;19906;-86
2023/12/08 06:43:38;;;;;;;;;;;6.50;91.00;;;;;;6308364;22;20344;-85
2023/12/08 06:46:03;;;;;;;;;;;6.50;91.00;;;;;;6280884;22;20320;-86
2023/12/08 06:48:29;;;;;;;;;;;6.50;90.90;;;;;;6307931;22;20270;-87
2023/12/08 06:50:54;;;;;;;;;;;6.50;91.00;;;;;;6308656;22;19906;-87
2023/12/08 06:53:20;;;;;;;;;;;6.50;90.90;;;;;;6281224;22;19931;-87
2023/12/08 06:55:45;;;;;;;;;;;6.50;91.00;;;;;;6308344;22;19899;-88
2023/12/08 06:58:11;;;;;;;;;;;6.50;91.00;;;;;;6309375;22;19910;-88
2023/12/08 07:00:37;;;;;;;;;;;6.60;90.90;;;;;;6308613;22;19899;-86
2023/12/08 07:03:03;;;;;;;;;;;6.60;91.00;;;;;;6308298;22;19974;-86
2023/12/08 07:05:29;;;;;;;;;;;6.60;91.00;;;;;;6308184;22;19903;-85
2023/12/08 07:07:56;;;;;;;;;;;6.60;90.90;;;;;;6308420;22;19948;-85
2023/12/08 07:10:22;;;;;;;;;;;6.60;90.70;;;;;;6281154;22;19913;-85
2023/12/08 07:12:47;;;;;;;;;;;6.60;90.60;;;;;;6308144;22;19899;-86
2023/12/08 07:15:13;;;;;;;;;;;6.60;90.60;;;;;;6280667;22;19898;-86
2023/12/08 07:17:39;;;;;;;;;;;6.60;90.60;;;;;;6310303;22;19903;-92
2023/12/08 07:20:06;;;;;;;;;;;6.60;90.70;;;;;;6309641;22;20357;-93
2023/12/08 07:22:32;;;;;;;;;;;6.60;90.60;;;;;;6309967;22;20275;-91
2023/12/08 07:24:58;;;;;;;;;;;6.60;90.60;;;;;;6311069;22;19899;-92
2023/12/08 07:27:24;;;;;;;;;;;6.60;90.60;;;;;;6309883;22;19898;-94
2023/12/08 07:29:49;;;;;;;;;;;6.70;90.70;;;;;;6284765;22;19903;-94
2023/12/08 07:32:15;;;;;;;;;;;6.70;90.80;;;;;;6310412;22;19898;-90
2023/12/08 07:34:40;;;;;;;;;;;6.80;90.70;;;;;;6309360;22;19973;-93
2023/12/08 07:37:06;;;;;;;;;;;6.80;90.60;;;;;;6281917;22;19907;-93
2023/12/08 07:39:31;;;;;;;;;;;6.90;90.50;;;;;;6282663;22;19911;-93
2023/12/08 07:41:57;;;;;;;;;;;6.90;90.30;;;;;;6310731;22;19903;-94
2023/12/08 07:44:22;;;;;;;;;;;6.90;90.30;;;;;;6310269;22;20206;-95
2023/12/08 07:46:48;;;;;;;;;;;7.00;90.20;;;;;;6285144;22;19899;-94
2023/12/08 07:49:13;;;;;;;;;;;7.00;90.00;;;;;;6312413;22;20290;-94
2023/12/08 07:51:39;;;;;;;;;;;7.00;90.10;;;;;;6285274;22;19899;-90
2023/12/08 07:54:04;;;;;;;;;;;7.00;90.10;;;;;;6312814;22;19903;-91
2023/12/08 07:56:30;;;;;;;;;;;7.10;90.30;;;;;;6312599;22;19899;-92
2023/12/08 07:58:55;;;;;;;;;;;7.10;90.10;;;;;;6311762;22;19899;-94
2023/12/08 08:01:21;;;;;;;;;;;7.10;90.20;;;;;;6313523;22;19902;-96
2023/12/08 08:03:47;;;;;;;;;;;7.10;90.20;;;;;;6285802;22;19899;-81
2023/12/08 08:06:13;;;;;;;;;;;7.20;90.00;;;;;;6286360;22;19899;-94
2023/12/08 08:08:38;;;;;;;;;;;7.20;90.00;;;;;;6314083;22;20229;-96
2023/12/08 08:11:04;;;;;;;;;;;7.20;90.00;;;;;;6286683;22;19902;-96
2023/12/08 08:13:29;;;;;;;;;;;7.20;90.00;;;;;;6287863;22;19930;-96
2023/12/08 08:15:55;;;;;;;;;;;7.30;89.90;;;;;;6312742;22;19913;-95
2023/12/08 08:18:21;;;;;;;;;;;7.30;90.00;;;;;;6284387;22;19930;-91
2023/12/08 08:20:47;;;;;;;;;;;7.30;90.20;;;;;;6283467;22;19993;-91
2023/12/08 08:23:12;;;;;;;;;;;7.40;89.70;;;;;;6284899;22;19902;-92
2023/12/08 08:25:38;;;;;;;;;;;7.40;89.70;;;;;;6310878;22;19906;-91
2023/12/08 08:28:03;;;;;;;;;;;7.40;89.60;;;;;;6310339;22;19926;-92
2023/12/08 08:30:29;;;;;;;;;;;7.40;89.60;;;;;;6312979;22;19902;-87
2023/12/08 08:32:55;;;;;;;;;;;7.40;89.80;;;;;;6312691;22;19905;-87
2023/12/08 08:35:20;;;;;;;;;;;7.50;89.60;;;;;;6311691;22;19898;-87
2023/12/08 08:37:46;;;;;;;;;;;7.50;88.80;;;;;;6309733;22;19948;-88
2023/12/08 08:40:11;;;;;;;;;;;7.50;89.00;;;;;;6309657;22;20325;-88
2023/12/08 08:42:37;;;;;;;;;;;7.50;89.10;;;;;;6282139;22;20254;-88
2023/12/08 08:45:04;;;;;;;;;;;7.50;88.90;;;;;;6282302;22;19952;-88
2023/12/08 08:47:30;;;;;;;;;;;7.50;88.90;;;;;;6282071;22;20225;-87
2023/12/08 08:49:55;;;;;;;;;;;7.50;88.80;;;;;;6309694;22;19906;-88
2023/12/08 08:52:21;;;;;;;;;;;7.60;89.00;;;;;;6309292;22;19903;-89
2023/12/08 08:54:47;;;;;;;;;;;7.60;88.90;;;;;;6282089;22;19903;-87
2023/12/08 08:57:12;;;;;;;;;;;7.70;88.80;;;;;;6281775;22;20316;-87
2023/12/08 08:59:38;;;;;;;;;;;7.70;88.80;;;;;;6309458;22;19923;-89
2023/12/08 09:02:03;;;;;;;;;;;7.70;88.90;;;;;;6309305;22;20420;-89
2023/12/08 09:04:29;;;;;;;;;;;7.70;88.80;;;;;;6282037;22;19898;-89
2023/12/08 09:06:56;;;;;;;;;;;7.80;88.60;;;;;;6282232;22;19970;-88
2023/12/08 09:09:22;;;;;;;;;;;7.70;88.20;;;;;;6309264;22;19907;-89
2023/12/08 09:11:47;;;;;;;;;;;7.70;88.60;;;;;;6308890;22;19949;-88
2023/12/08 09:14:13;;;;;;;;;;;7.70;88.50;;;;;;6308769;22;19899;-87
2023/12/08 09:16:39;;;;;;;;;;;7.70;89.10;;;;;;6281664;22;19899;-88
2023/12/08 09:19:05;;;;;;;;;;;7.70;88.90;;;;;;6309184;22;19933;-87
2023/12/08 09:21:31;;;;;;;;;;;7.70;88.50;;;;;;6281480;22;19899;-87
2023/12/08 09:23:56;;;;;;;;;;;7.60;88.50;;;;;;6309033;22;20309;-87
2023/12/08 09:26:22;;;;;;;;;;;7.60;88.80;;;;;;6282669;22;19906;-95
2023/12/08 09:28:48;;;;;;;;;;;7.60;88.90;;;;;;6311029;22;20321;-94
2023/12/08 09:31:13;;;;;;;;;;;7.70;88.70;;;;;;6282957;22;19968;-94
2023/12/08 09:33:41;;;;;;;;;;;7.60;88.40;;;;;;6283290;22;19906;-93
2023/12/08 09:36:10;;;;;;;;;;;7.60;87.80;;;;;;6283086;22;20351;-95
2023/12/08 09:38:36;;;;;;;;;;;7.60;88.20;;;;;;6283284;22;19921;-88
2023/12/08 09:41:04;;;;;;;;;;;7.60;88.80;;;;;;6309300;22;20321;-88
2023/12/08 09:43:42;;;;;;;;;;;7.60;88.90;;;;;;6308226;22;19949;-85
2023/12/08 09:46:08;;;;;;;;;;;7.70;88.90;;;;;;6279702;22;19903;-85
2023/12/08 09:48:36;;;;;;;;;;;7.70;88.50;;;;;;6307534;22;19902;-85
2023/12/08 09:51:03;;;;;;;;;;;7.70;88.50;;;;;;6307003;22;19903;-85
2023/12/08 09:53:29;;;;;;;;;;;7.70;88.80;;;;;;6307351;22;19941;-85
2023/12/08 09:55:55;;;;;;;;;;;7.70;88.40;;;;;;6307790;22;19903;-85
2023/12/08 09:58:21;;;;;;;;;;;7.70;89.10;;;;;;6308349;22;20271;-85
2023/12/08 10:00:48;;;;;;;;;;;7.70;89.10;;;;;;6280652;22;19903;-85
2023/12/08 10:03:14;;;;;;;;;;;7.60;89.10;;;;;;6308653;22;19905;-85
2023/12/08 10:05:40;;;;;;;;;;;7.60;89.50;;;;;;6308904;22;19899;-85
2023/12/08 10:08:08;;;;;;;;;;;7.60;89.70;;;;;;6309664;22;19899;-85
2023/12/08 10:10:34;;;;;;;;;;;7.60;89.80;;;;;;6308673;22;19903;-85
2023/12/08 10:13:00;;;;;;;;;;;7.60;90.00;;;;;;6281811;22;19906;-85
2023/12/08 10:15:26;;;;;;;;;;;7.70;90.20;;;;;;6308389;22;19898;-85
2023/12/08 10:17:51;;;;;;;;;;;7.60;90.20;;;;;;6281545;22;19934;-85
2023/12/08 10:20:17;;;;;;;;;;;7.70;90.10;;;;;;6308735;22;19903;-85
2023/12/08 10:22:46;;;;;;;;;;;7.70;90.00;;;;;;6306841;22;19899;-84
2023/12/08 10:25:18;;;;;;;;;;;7.70;89.80;;;;;;6307815;22;19926;-85
2023/12/08 10:27:45;;;;;;;;;;;7.70;89.90;;;;;;6305051;22;19899;-85
2023/12/08 10:30:10;;;;;;;;;;;7.70;89.70;;;;;;6307987;22;19903;-86
2023/12/08 10:32:37;;;;;;;;;;;7.80;90.00;;;;;;6308451;22;19910;-85
2023/12/08 10:35:02;;;;;;;;;;;7.80;89.90;;;;;;6280886;22;19935;-85
2023/12/08 10:37:28;;;;;;;;;;;7.80;89.30;;;;;;6308301;22;19906;-85
2023/12/08 10:39:54;;;;;;;;;;;7.90;89.70;;;;;;6307790;22;19906;-86
2023/12/08 10:42:19;;;;;;;;;;;7.80;89.10;;;;;;6307439;22;20244;-86
2023/12/08 10:44:45;;;;;;;;;;;7.80;89.60;;;;;;6307807;22;19898;-86
2023/12/08 10:47:12;;;;;;;;;;;7.80;90.20;;;;;;6307752;22;19910;-84
2023/12/08 10:49:38;;;;;;;;;;;7.90;90.20;;;;;;6307598;22;19914;-87
2023/12/08 10:52:04;;;;;;;;;;;7.90;90.20;;;;;;6307986;22;19902;-88
2023/12/08 10:54:30;;;;;;;;;;;8.00;90.40;;;;;;6280853;22;20266;-89
2023/12/08 10:56:56;;;;;;;;;;;8.00;90.40;;;;;;6309606;22;19906;-90
2023/12/08 10:59:24;;;;;;;;;;;8.10;90.40;;;;;;6283298;22;19909;-91
2023/12/08 11:01:50;;;;;;;;;;;8.20;90.40;;;;;;6284024;22;19899;-92
2023/12/08 11:04:19;;;;;;;;;;;8.30;90.30;;;;;;6310867;22;19905;-93
2023/12/08 11:06:57;;;;;;;;;;;8.30;90.30;;;;;;6284761;22;19981;-91
2023/12/08 11:09:24;;;;;;;;;;;8.40;90.00;;;;;;6284305;22;19920;-92
2023/12/08 11:11:53;;;;;;;;;;;8.50;90.20;;;;;;6286100;22;19914;-92
2023/12/08 11:14:41;;;;;;;;;;;8.50;90.20;;;;;;6311806;22;20024;-92
2023/12/08 11:17:16;;;;;;;;;;;8.60;90.20;;;;;;6262100;22;19898;-92
2023/12/08 11:19:42;;;;;;;;;;;8.60;89.80;;;;;;6282304;22;19909;-91
2023/12/08 11:22:08;;;;;;;;;;;8.60;89.60;;;;;;6285168;22;20214;-91
2023/12/08 11:24:36;;;;;;;;;;;8.70;90.10;;;;;;6283684;22;19903;-90
2023/12/08 11:27:02;;;;;;;;;;;8.70;89.50;;;;;;6283514;22;19902;-91
2023/12/08 11:29:49;;;;;;;;;;;8.70;89.90;;;;;;6284355;22;19903;-91
2023/12/08 11:32:15;;;;;;;;;;;8.80;90.20;;;;;;6291570;22;19913;-92
2023/12/08 11:34:57;;;;;;;;;;;8.90;90.00;;;;;;6283523;22;19915;-87
2023/12/08 11:37:23;;;;;;;;;;;9.00;89.80;;;;;;6307049;22;19899;-81
2023/12/08 11:39:49;;;;;;;;;;;9.00;90.10;;;;;;6307259;22;19982;-81
2023/12/08 11:42:20;;;;;;;;;;;9.00;88.80;;;;;;6307976;22;19935;-81
2023/12/08 11:44:46;;;;;;;;;;;9.10;89.30;;;;;;6307316;22;20327;-81
2023/12/08 11:47:21;;;;;;;;;;;9.20;88.90;;;;;;6307183;22;19909;-83
2023/12/08 11:49:48;;;;;;;;;;;9.30;87.70;;;;;;6306013;22;19956;-82
2023/12/08 11:52:17;;;;;;;;;;;9.50;87.70;;;;;;6307703;22;20210;-83
2023/12/08 11:54:58;;;;;;;;;;;9.50;87.40;;;;;;6307699;22;19899;-84
2023/12/08 11:57:24;;;;;;;;;;;9.50;87.10;;;;;;6307631;22;19926;-83
2023/12/08 11:59:50;;;;;;;;;;;9.60;86.70;;;;;;6307819;22;20216;-83
2023/12/08 12:02:16;;;;;;;;;;;9.60;86.70;;;;;;6307217;22;19903;-83
2023/12/08 12:04:42;;;;;;;;;;;9.60;85.90;;;;;;6307476;22;19970;-83
2023/12/08 12:07:08;;;;;;;;;;;9.60;86.00;;;;;;6307746;22;19899;-83
2023/12/08 12:09:34;;;;;;;;;;;9.60;86.80;;;;;;6307381;22;20324;-83
2023/12/08 12:12:04;;;;;;;;;;;9.60;86.30;;;;;;6307759;22;19927;-83
2023/12/08 12:14:31;;;;;;;;;;;9.60;85.70;;;;;;6307437;22;19934;-83
2023/12/08 12:16:57;;;;;;;;;;;9.70;85.70;;;;;;6279838;22;20279;-83
2023/12/08 12:19:23;;;;;;;;;;;9.70;85.30;;;;;;6306926;22;19925;-83
2023/12/08 12:21:48;;;;;;;;;;;9.80;85.60;;;;;;6307999;22;19898;-84
2023/12/08 12:24:14;;;;;;;;;;;9.90;84.50;;;;;;6307312;22;19899;-84
2023/12/08 12:26:39;;;;;;;;;;;10.00;84.70;;;;;;6307283;22;19906;-84
2023/12/08 12:29:05;;;;;;;;;;;10.10;84.40;;;;;;6307470;22;19913;-83
2023/12/08 12:31:30;;;;;;;;;;;10.20;83.40;;;;;;6307062;22;20037;-83
2023/12/08 12:33:56;;;;;;;;;;;10.30;83.70;;;;;;6308757;22;19899;-84
2023/12/08 12:36:22;;;;;;;;;;;10.40;84.90;;;;;;6282163;22;19914;-84
2023/12/08 12:38:48;;;;;;;;;;;10.50;83.80;;;;;;6309679;22;20292;-84
2023/12/08 12:41:20;;;;;;;;;;;10.50;83.10;;;;;;6309791;22;19934;-84
2023/12/08 12:43:46;;;;;;;;;;;10.40;83.30;;;;;;6309250;22;19938;-84
2023/12/08 12:46:12;;;;;;;;;;;10.40;83.20;;;;;;6308961;22;19906;-82
2023/12/08 12:48:38;;;;;;;;;;;10.30;83.60;;;;;;6309311;22;20225;-83
2023/12/08 12:51:04;;;;;;;;;;;10.20;83.80;;;;;;6308800;22;19929;-83
2023/12/08 12:53:30;;;;;;;;;;;10.20;84.50;;;;;;6308960;22;20321;-84
2023/12/08 12:56:05;;;;;;;;;;;10.40;85.30;;;;;;6308956;22;19934;-84
2023/12/08 12:58:31;;;;;;;;;;;10.40;85.70;;;;;;6308882;22;19902;-83
2023/12/08 13:00:57;;;;;;;;;;;10.50;84.40;;;;;;6308910;22;19905;-84
2023/12/08 13:03:22;;;;;;;;;;;10.50;83.00;;;;;;6309076;22;19948;-84
2023/12/08 13:05:54;;;;;;;;;;;10.50;83.50;;;;;;6308888;22;19899;-83
2023/12/08 13:08:20;;;;;;;;;;;10.40;83.00;;;;;;6308554;22;19899;-83
2023/12/08 13:10:46;;;;;;;;;;;10.40;83.70;;;;;;6308914;22;20236;-83
2023/12/08 13:13:12;;;;;;;;;;;10.40;83.60;;;;;;6308823;22;19910;-83
2023/12/08 13:15:37;;;;;;;;;;;10.40;83.50;;;;;;6309145;22;19899;-83
2023/12/08 13:18:04;;;;;;;;;;;10.40;84.10;;;;;;6308439;22;19898;-83
2023/12/08 13:20:29;;;;;;;;;;;10.40;84.00;;;;;;6281467;22;19974;-82
2023/12/08 13:22:55;;;;;;;;;;;10.30;83.90;;;;;;6308632;22;20332;-82
2023/12/08 13:25:20;;;;;;;;;;;10.30;84.50;;;;;;6308962;22;19899;-83
2023/12/08 13:27:46;;;;;;;;;;;10.30;84.60;;;;;;6308775;22;20216;-81
2023/12/08 13:30:12;;;;;;;;;;;10.20;84.90;;;;;;6308823;22;20253;-82
2023/12/08 13:32:37;;;;;;;;;;;10.30;84.80;;;;;;6308770;22;19899;-82
2023/12/08 13:35:05;;;;;;;;;;;10.30;84.70;;;;;;6305751;22;20355;-83
2023/12/08 13:37:30;;;;;;;;;;;10.30;84.70;;;;;;6305545;22;19907;-82
2023/12/08 13:39:56;;;;;;;;;;;10.20;84.40;;;;;;6305880;22;19956;-82
2023/12/08 13:42:21;;;;;;;;;;;10.20;84.80;;;;;;6276199;22;19902;-82
2023/12/08 13:44:47;;;;;;;;;;;10.10;85.30;;;;;;6305696;22;19948;-82
2023/12/08 13:47:13;;;;;;;;;;;10.20;84.50;;;;;;6277770;22;19956;-82
2023/12/08 13:49:38;;;;;;;;;;;10.10;84.40;;;;;;6305620;22;20236;-82
2023/12/08 13:52:04;;;;;;;;;;;10.10;85.20;;;;;;6305569;22;20241;-82
2023/12/08 13:54:30;;;;;;;;;;;10.00;85.20;;;;;;6305704;22;19899;-82
2023/12/08 13:56:56;;;;;;;;;;;10.00;85.20;;;;;;6305366;22;20273;-83
2023/12/08 13:59:21;;;;;;;;;;;9.90;85.50;;;;;;6305441;22;19922;-82
2023/12/08 14:01:47;;;;;;;;;;;9.90;86.00;;;;;;6305285;22;19913;-82
2023/12/08 14:04:12;;;;;;;;;;;9.90;86.00;;;;;;6305630;22;19948;-83
2023/12/08 14:06:39;;;;;;;;;;;9.90;86.60;;;;;;6305540;22;19909;-83
2023/12/08 14:09:05;;;;;;;;;;;9.90;86.20;;;;;;6305654;22;19960;-82
2023/12/08 14:11:30;;;;;;;;;;;9.90;86.40;;;;;;6304401;22;19974;-82
2023/12/08 14:13:56;;;;;;;;;;;9.90;86.70;;;;;;6305134;22;19991;-81
2023/12/08 14:16:22;;;;;;;;;;;10.00;86.40;;;;;;6300681;22;19941;-82
2023/12/08 14:18:47;;;;;;;;;;;9.90;86.30;;;;;;6276150;22;19903;-82
2023/12/08 14:21:14;;;;;;;;;;;9.90;85.70;;;;;;6304403;22;19907;-82